ROKJ(METAR)
04/24 09:00
ROKJ 240000Z 18013KT 9999 SCT010 BKN030 26/25 Q1011 RMK A2985=
戻る
トップページへ戻る
IMOC Co,.Ltd.